sensor_id;sensor_type;location;lat;lon;timestamp;temperature;humidity
12426;DHT22;6277;49.824;9.562;2024-02-15T00:00:21;13.80;79.00
12426;DHT22;6277;49.824;9.562;2024-02-15T00:02:48;13.80;79.10
12426;DHT22;6277;49.824;9.562;2024-02-15T00:05:14;13.80;79.20
12426;DHT22;6277;49.824;9.562;2024-02-15T00:07:42;13.80;79.20
12426;DHT22;6277;49.824;9.562;2024-02-15T00:10:09;13.70;79.10
12426;DHT22;6277;49.824;9.562;2024-02-15T00:12:34;13.70;79.10
12426;DHT22;6277;49.824;9.562;2024-02-15T00:15:01;13.70;79.20
12426;DHT22;6277;49.824;9.562;2024-02-15T00:17:27;13.70;79.20
12426;DHT22;6277;49.824;9.562;2024-02-15T00:19:55;13.70;79.20
12426;DHT22;6277;49.824;9.562;2024-02-15T00:22:20;13.70;79.20
12426;DHT22;6277;49.824;9.562;2024-02-15T00:24:46;13.70;79.20
12426;DHT22;6277;49.824;9.562;2024-02-15T00:27:16;13.70;79.20
12426;DHT22;6277;49.824;9.562;2024-02-15T00:29:42;13.70;79.20
12426;DHT22;6277;49.824;9.562;2024-02-15T00:32:09;13.60;79.10
12426;DHT22;6277;49.824;9.562;2024-02-15T00:34:36;13.60;79.00
12426;DHT22;6277;49.824;9.562;2024-02-15T00:37:04;13.60;79.00
12426;DHT22;6277;49.824;9.562;2024-02-15T00:39:30;13.60;79.00
12426;DHT22;6277;49.824;9.562;2024-02-15T00:41:57;13.60;79.00
12426;DHT22;6277;49.824;9.562;2024-02-15T00:44:22;13.50;78.90
12426;DHT22;6277;49.824;9.562;2024-02-15T00:46:48;13.50;78.90
12426;DHT22;6277;49.824;9.562;2024-02-15T00:49:13;13.50;78.90
12426;DHT22;6277;49.824;9.562;2024-02-15T00:51:39;13.40;78.90
12426;DHT22;6277;49.824;9.562;2024-02-15T00:54:05;13.40;78.90
12426;DHT22;6277;49.824;9.562;2024-02-15T00:56:31;13.40;79.00
12426;DHT22;6277;49.824;9.562;2024-02-15T00:58:59;13.30;78.90
12426;DHT22;6277;49.824;9.562;2024-02-15T01:01:26;13.30;79.00
12426;DHT22;6277;49.824;9.562;2024-02-15T01:03:51;13.30;79.10
12426;DHT22;6277;49.824;9.562;2024-02-15T01:06:17;13.30;79.20
12426;DHT22;6277;49.824;9.562;2024-02-15T01:08:43;13.20;79.30
12426;DHT22;6277;49.824;9.562;2024-02-15T01:11:09;13.20;79.40
12426;DHT22;6277;49.824;9.562;2024-02-15T01:13:35;13.20;79.40
12426;DHT22;6277;49.824;9.562;2024-02-15T01:16:00;13.20;79.60
12426;DHT22;6277;49.824;9.562;2024-02-15T01:18:28;13.20;79.50
12426;DHT22;6277;49.824;9.562;2024-02-15T01:20:55;13.20;79.60
12426;DHT22;6277;49.824;9.562;2024-02-15T01:23:21;13.20;79.60
12426;DHT22;6277;49.824;9.562;2024-02-15T01:25:48;13.20;79.60
12426;DHT22;6277;49.824;9.562;2024-02-15T01:28:14;13.20;79.50
12426;DHT22;6277;49.824;9.562;2024-02-15T01:30:39;13.20;79.40
12426;DHT22;6277;49.824;9.562;2024-02-15T01:33:05;13.10;79.40
12426;DHT22;6277;49.824;9.562;2024-02-15T01:35:30;13.10;79.40
12426;DHT22;6277;49.824;9.562;2024-02-15T01:37:56;13.10;79.50
12426;DHT22;6277;49.824;9.562;2024-02-15T01:40:21;13.00;79.50
12426;DHT22;6277;49.824;9.562;2024-02-15T01:42:47;13.00;79.50
12426;DHT22;6277;49.824;9.562;2024-02-15T01:45:15;13.00;79.40
12426;DHT22;6277;49.824;9.562;2024-02-15T01:47:41;13.00;79.40
12426;DHT22;6277;49.824;9.562;2024-02-15T01:50:10;12.90;79.30
12426;DHT22;6277;49.824;9.562;2024-02-15T01:52:37;12.90;79.40
12426;DHT22;6277;49.824;9.562;2024-02-15T01:55:03;12.90;79.50
12426;DHT22;6277;49.824;9.562;2024-02-15T01:57:34;12.90;79.60
12426;DHT22;6277;49.824;9.562;2024-02-15T02:00:00;12.90;79.60
12426;DHT22;6277;49.824;9.562;2024-02-15T02:02:30;12.80;79.60
12426;DHT22;6277;49.824;9.562;2024-02-15T02:04:58;12.80;79.70
12426;DHT22;6277;49.824;9.562;2024-02-15T02:07:23;12.80;79.70
12426;DHT22;6277;49.824;9.562;2024-02-15T02:09:49;12.80;79.70
12426;DHT22;6277;49.824;9.562;2024-02-15T02:12:15;12.80;79.80
12426;DHT22;6277;49.824;9.562;2024-02-15T02:14:40;12.80;79.90
12426;DHT22;6277;49.824;9.562;2024-02-15T02:17:15;12.80;80.10
12426;DHT22;6277;49.824;9.562;2024-02-15T02:19:44;12.80;80.30
12426;DHT22;6277;49.824;9.562;2024-02-15T02:22:09;12.80;80.30
12426;DHT22;6277;49.824;9.562;2024-02-15T02:27:19;12.90;80.50
12426;DHT22;6277;49.824;9.562;2024-02-15T02:29:45;12.90;80.40
12426;DHT22;6277;49.824;9.562;2024-02-15T02:32:11;12.90;80.40
12426;DHT22;6277;49.824;9.562;2024-02-15T02:34:38;12.90;80.40
12426;DHT22;6277;49.824;9.562;2024-02-15T02:37:04;12.90;80.40
12426;DHT22;6277;49.824;9.562;2024-02-15T02:39:31;12.90;80.50
12426;DHT22;6277;49.824;9.562;2024-02-15T02:41:57;12.90;80.50
12426;DHT22;6277;49.824;9.562;2024-02-15T02:44:22;12.80;80.40
12426;DHT22;6277;49.824;9.562;2024-02-15T02:46:48;12.80;80.40
12426;DHT22;6277;49.824;9.562;2024-02-15T02:49:13;12.80;80.50
12426;DHT22;6277;49.824;9.562;2024-02-15T02:51:39;12.80;80.50
12426;DHT22;6277;49.824;9.562;2024-02-15T02:54:05;12.80;80.80
12426;DHT22;6277;49.824;9.562;2024-02-15T02:56:32;12.80;80.30
12426;DHT22;6277;49.824;9.562;2024-02-15T02:58:58;12.70;80.10
12426;DHT22;6277;49.824;9.562;2024-02-15T03:01:24;12.70;80.00
12426;DHT22;6277;49.824;9.562;2024-02-15T03:03:53;12.60;79.70
12426;DHT22;6277;49.824;9.562;2024-02-15T03:06:21;12.60;79.50
12426;DHT22;6277;49.824;9.562;2024-02-15T03:08:50;12.50;79.40
12426;DHT22;6277;49.824;9.562;2024-02-15T03:11:19;12.40;79.30
12426;DHT22;6277;49.824;9.562;2024-02-15T03:13:45;12.40;79.50
12426;DHT22;6277;49.824;9.562;2024-02-15T03:16:10;12.30;80.10
12426;DHT22;6277;49.824;9.562;2024-02-15T03:18:36;12.20;79.70
12426;DHT22;6277;49.824;9.562;2024-02-15T03:21:02;12.20;79.80
12426;DHT22;6277;49.824;9.562;2024-02-15T03:23:27;12.10;79.70
12426;DHT22;6277;49.824;9.562;2024-02-15T03:25:54;12.10;79.70
12426;DHT22;6277;49.824;9.562;2024-02-15T03:28:19;12.00;79.70
12426;DHT22;6277;49.824;9.562;2024-02-15T03:30:46;12.00;79.80
12426;DHT22;6277;49.824;9.562;2024-02-15T03:33:12;12.00;80.00
12426;DHT22;6277;49.824;9.562;2024-02-15T03:35:38;11.90;80.20
12426;DHT22;6277;49.824;9.562;2024-02-15T03:38:04;11.90;80.40
12426;DHT22;6277;49.824;9.562;2024-02-15T03:40:30;11.90;80.40
12426;DHT22;6277;49.824;9.562;2024-02-15T03:42:57;12.00;80.40
12426;DHT22;6277;49.824;9.562;2024-02-15T03:45:23;12.00;80.40
12426;DHT22;6277;49.824;9.562;2024-02-15T03:47:51;12.00;80.40
12426;DHT22;6277;49.824;9.562;2024-02-15T03:50:17;11.90;80.30
12426;DHT22;6277;49.824;9.562;2024-02-15T03:52:44;12.00;80.40
12426;DHT22;6277;49.824;9.562;2024-02-15T03:55:10;12.00;80.50
12426;DHT22;6277;49.824;9.562;2024-02-15T03:57:38;12.00;80.60
12426;DHT22;6277;49.824;9.562;2024-02-15T04:00:06;12.00;80.70
12426;DHT22;6277;49.824;9.562;2024-02-15T04:02:33;12.00;80.80
12426;DHT22;6277;49.824;9.562;2024-02-15T04:05:00;12.00;80.90
12426;DHT22;6277;49.824;9.562;2024-02-15T04:07:26;12.00;81.00
12426;DHT22;6277;49.824;9.562;2024-02-15T04:09:52;12.10;81.10
12426;DHT22;6277;49.824;9.562;2024-02-15T04:12:18;12.10;81.20
12426;DHT22;6277;49.824;9.562;2024-02-15T04:14:44;12.20;81.30
12426;DHT22;6277;49.824;9.562;2024-02-15T04:17:13;12.20;81.40
12426;DHT22;6277;49.824;9.562;2024-02-15T04:19:39;12.20;81.30
12426;DHT22;6277;49.824;9.562;2024-02-15T04:22:05;12.20;82.00
12426;DHT22;6277;49.824;9.562;2024-02-15T04:24:36;12.30;81.30
12426;DHT22;6277;49.824;9.562;2024-02-15T04:27:05;12.30;81.30
12426;DHT22;6277;49.824;9.562;2024-02-15T04:29:33;12.40;81.90
12426;DHT22;6277;49.824;9.562;2024-02-15T04:31:58;12.40;81.20
12426;DHT22;6277;49.824;9.562;2024-02-15T04:34:24;12.40;81.10
12426;DHT22;6277;49.824;9.562;2024-02-15T04:36:49;12.40;81.10
12426;DHT22;6277;49.824;9.562;2024-02-15T04:39:16;12.50;81.10
12426;DHT22;6277;49.824;9.562;2024-02-15T04:41:52;12.50;81.10
12426;DHT22;6277;49.824;9.562;2024-02-15T04:44:18;12.50;81.10
12426;DHT22;6277;49.824;9.562;2024-02-15T04:46:48;12.50;81.00
12426;DHT22;6277;49.824;9.562;2024-02-15T04:49:15;12.50;81.10
12426;DHT22;6277;49.824;9.562;2024-02-15T04:51:41;12.60;81.10
12426;DHT22;6277;49.824;9.562;2024-02-15T04:54:10;12.60;81.10
12426;DHT22;6277;49.824;9.562;2024-02-15T04:56:42;12.60;81.10
12426;DHT22;6277;49.824;9.562;2024-02-15T04:59:09;12.60;81.20
12426;DHT22;6277;49.824;9.562;2024-02-15T05:01:37;12.60;81.20
12426;DHT22;6277;49.824;9.562;2024-02-15T05:04:03;12.70;81.30
12426;DHT22;6277;49.824;9.562;2024-02-15T05:06:33;12.70;81.30
12426;DHT22;6277;49.824;9.562;2024-02-15T05:08:58;12.70;81.40
12426;DHT22;6277;49.824;9.562;2024-02-15T05:11:26;12.70;81.30
12426;DHT22;6277;49.824;9.562;2024-02-15T05:13:51;12.80;81.30
12426;DHT22;6277;49.824;9.562;2024-02-15T05:16:18;12.80;81.30
12426;DHT22;6277;49.824;9.562;2024-02-15T05:18:44;12.80;81.30
12426;DHT22;6277;49.824;9.562;2024-02-15T05:21:11;12.80;81.30
12426;DHT22;6277;49.824;9.562;2024-02-15T05:23:37;12.80;81.30
12426;DHT22;6277;49.824;9.562;2024-02-15T05:26:05;12.90;81.30
12426;DHT22;6277;49.824;9.562;2024-02-15T05:28:31;12.90;81.30
12426;DHT22;6277;49.824;9.562;2024-02-15T05:31:18;12.90;81.30
12426;DHT22;6277;49.824;9.562;2024-02-15T05:33:46;12.90;81.30
12426;DHT22;6277;49.824;9.562;2024-02-15T05:36:17;12.90;81.10
12426;DHT22;6277;49.824;9.562;2024-02-15T05:38:47;12.90;81.20
12426;DHT22;6277;49.824;9.562;2024-02-15T05:41:13;12.90;81.10
12426;DHT22;6277;49.824;9.562;2024-02-15T05:43:39;12.90;81.10
12426;DHT22;6277;49.824;9.562;2024-02-15T05:46:07;12.90;81.00
12426;DHT22;6277;49.824;9.562;2024-02-15T05:48:32;12.90;81.10
12426;DHT22;6277;49.824;9.562;2024-02-15T05:51:05;12.90;81.10
12426;DHT22;6277;49.824;9.562;2024-02-15T05:53:31;12.90;81.00
12426;DHT22;6277;49.824;9.562;2024-02-15T05:56:02;12.90;81.00
12426;DHT22;6277;49.824;9.562;2024-02-15T05:58:29;12.90;81.00
12426;DHT22;6277;49.824;9.562;2024-02-15T06:00:55;12.90;81.00
12426;DHT22;6277;49.824;9.562;2024-02-15T06:03:25;12.90;81.00
12426;DHT22;6277;49.824;9.562;2024-02-15T06:05:51;12.90;81.00
12426;DHT22;6277;49.824;9.562;2024-02-15T06:08:17;12.90;81.00
12426;DHT22;6277;49.824;9.562;2024-02-15T06:10:43;12.90;81.00
12426;DHT22;6277;49.824;9.562;2024-02-15T06:13:09;12.90;81.00
12426;DHT22;6277;49.824;9.562;2024-02-15T06:15:35;12.90;81.00
12426;DHT22;6277;49.824;9.562;2024-02-15T06:18:01;12.90;81.00
12426;DHT22;6277;49.824;9.562;2024-02-15T06:20:29;12.90;81.00
12426;DHT22;6277;49.824;9.562;2024-02-15T06:22:56;12.90;81.10
12426;DHT22;6277;49.824;9.562;2024-02-15T06:25:21;12.90;81.10
12426;DHT22;6277;49.824;9.562;2024-02-15T06:27:48;12.90;81.10
12426;DHT22;6277;49.824;9.562;2024-02-15T06:30:16;12.90;81.20
12426;DHT22;6277;49.824;9.562;2024-02-15T06:33:00;12.90;81.20
12426;DHT22;6277;49.824;9.562;2024-02-15T06:35:44;12.90;81.20
12426;DHT22;6277;49.824;9.562;2024-02-15T06:38:28;12.90;81.20
12426;DHT22;6277;49.824;9.562;2024-02-15T06:41:13;12.90;81.20
12426;DHT22;6277;49.824;9.562;2024-02-15T06:43:39;12.90;81.30
12426;DHT22;6277;49.824;9.562;2024-02-15T06:46:08;12.90;81.30
12426;DHT22;6277;49.824;9.562;2024-02-15T06:48:34;12.90;81.40
12426;DHT22;6277;49.824;9.562;2024-02-15T06:51:00;12.90;81.40
12426;DHT22;6277;49.824;9.562;2024-02-15T06:53:25;13.00;81.50
12426;DHT22;6277;49.824;9.562;2024-02-15T06:55:51;13.00;81.50
12426;DHT22;6277;49.824;9.562;2024-02-15T06:58:17;13.00;81.40
12426;DHT22;6277;49.824;9.562;2024-02-15T07:00:43;13.00;81.40
12426;DHT22;6277;49.824;9.562;2024-02-15T07:03:09;13.10;81.40
12426;DHT22;6277;49.824;9.562;2024-02-15T07:05:36;13.10;81.40
12426;DHT22;6277;49.824;9.562;2024-02-15T07:08:04;13.10;81.40
12426;DHT22;6277;49.824;9.562;2024-02-15T07:10:30;13.10;81.40
12426;DHT22;6277;49.824;9.562;2024-02-15T07:12:57;13.10;81.40
12426;DHT22;6277;49.824;9.562;2024-02-15T07:15:22;13.20;81.50
12426;DHT22;6277;49.824;9.562;2024-02-15T07:17:48;13.20;81.50
12426;DHT22;6277;49.824;9.562;2024-02-15T07:20:13;13.20;81.60
12426;DHT22;6277;49.824;9.562;2024-02-15T07:22:43;13.20;81.70
12426;DHT22;6277;49.824;9.562;2024-02-15T07:25:10;13.30;81.80
12426;DHT22;6277;49.824;9.562;2024-02-15T07:27:36;13.30;81.80
12426;DHT22;6277;49.824;9.562;2024-02-15T07:30:02;13.40;81.90
12426;DHT22;6277;49.824;9.562;2024-02-15T07:32:31;13.40;81.90
12426;DHT22;6277;49.824;9.562;2024-02-15T07:34:57;13.50;82.00
12426;DHT22;6277;49.824;9.562;2024-02-15T07:37:23;13.60;82.00
12426;DHT22;6277;49.824;9.562;2024-02-15T07:39:51;13.60;81.90
12426;DHT22;6277;49.824;9.562;2024-02-15T07:42:17;13.70;82.10
12426;DHT22;6277;49.824;9.562;2024-02-15T07:44:42;13.80;82.10
12426;DHT22;6277;49.824;9.562;2024-02-15T07:47:08;13.80;82.10
12426;DHT22;6277;49.824;9.562;2024-02-15T07:49:36;13.90;82.10
12426;DHT22;6277;49.824;9.562;2024-02-15T07:52:02;14.00;82.10
12426;DHT22;6277;49.824;9.562;2024-02-15T07:54:30;14.10;82.10
12426;DHT22;6277;49.824;9.562;2024-02-15T07:56:56;14.10;82.00
12426;DHT22;6277;49.824;9.562;2024-02-15T07:59:21;14.20;82.00
12426;DHT22;6277;49.824;9.562;2024-02-15T08:01:47;14.30;82.00
12426;DHT22;6277;49.824;9.562;2024-02-15T08:04:15;14.40;82.00
12426;DHT22;6277;49.824;9.562;2024-02-15T08:06:42;14.40;81.90
12426;DHT22;6277;49.824;9.562;2024-02-15T08:09:09;14.50;81.90
12426;DHT22;6277;49.824;9.562;2024-02-15T08:11:42;14.60;81.80
12426;DHT22;6277;49.824;9.562;2024-02-15T08:14:07;14.70;81.80
12426;DHT22;6277;49.824;9.562;2024-02-15T08:16:36;14.70;81.60
12426;DHT22;6277;49.824;9.562;2024-02-15T08:19:03;14.80;81.60
12426;DHT22;6277;49.824;9.562;2024-02-15T08:21:31;14.90;81.60
12426;DHT22;6277;49.824;9.562;2024-02-15T08:24:06;14.90;81.50
12426;DHT22;6277;49.824;9.562;2024-02-15T08:28:57;15.00;81.30
12426;DHT22;6277;49.824;9.562;2024-02-15T08:31:23;15.10;81.20
12426;DHT22;6277;49.824;9.562;2024-02-15T08:33:49;15.10;81.10
12426;DHT22;6277;49.824;9.562;2024-02-15T08:36:14;15.20;81.00
12426;DHT22;6277;49.824;9.562;2024-02-15T08:38:40;15.30;81.00
12426;DHT22;6277;49.824;9.562;2024-02-15T08:41:06;15.30;81.00
12426;DHT22;6277;49.824;9.562;2024-02-15T08:43:33;15.30;81.00
12426;DHT22;6277;49.824;9.562;2024-02-15T08:45:59;15.40;81.10
12426;DHT22;6277;49.824;9.562;2024-02-15T08:48:25;15.40;81.00
12426;DHT22;6277;49.824;9.562;2024-02-15T08:50:53;15.50;81.00
12426;DHT22;6277;49.824;9.562;2024-02-15T08:53:19;15.60;80.80
12426;DHT22;6277;49.824;9.562;2024-02-15T08:55:45;15.70;81.60
12426;DHT22;6277;49.824;9.562;2024-02-15T08:58:11;15.70;80.70
12426;DHT22;6277;49.824;9.562;2024-02-15T09:00:36;15.80;80.70
12426;DHT22;6277;49.824;9.562;2024-02-15T09:03:06;15.80;80.50
12426;DHT22;6277;49.824;9.562;2024-02-15T09:05:32;15.90;80.50
12426;DHT22;6277;49.824;9.562;2024-02-15T09:07:57;16.00;80.50
12426;DHT22;6277;49.824;9.562;2024-02-15T09:10:23;16.00;80.50
12426;DHT22;6277;49.824;9.562;2024-02-15T09:12:49;16.10;80.50
12426;DHT22;6277;49.824;9.562;2024-02-15T09:15:15;16.20;80.50
12426;DHT22;6277;49.824;9.562;2024-02-15T09:17:41;16.30;80.40
12426;DHT22;6277;49.824;9.562;2024-02-15T09:20:15;16.40;80.30
12426;DHT22;6277;49.824;9.562;2024-02-15T09:22:42;16.40;80.60
12426;DHT22;6277;49.824;9.562;2024-02-15T09:25:09;16.50;80.20
12426;DHT22;6277;49.824;9.562;2024-02-15T09:27:35;16.60;80.00
12426;DHT22;6277;49.824;9.562;2024-02-15T09:30:02;16.70;79.90
12426;DHT22;6277;49.824;9.562;2024-02-15T09:32:27;16.70;79.70
12426;DHT22;6277;49.824;9.562;2024-02-15T09:34:53;16.80;79.50
12426;DHT22;6277;49.824;9.562;2024-02-15T09:37:18;16.80;79.30
12426;DHT22;6277;49.824;9.562;2024-02-15T09:39:44;16.90;79.20
12426;DHT22;6277;49.824;9.562;2024-02-15T09:42:09;16.90;79.10
12426;DHT22;6277;49.824;9.562;2024-02-15T09:44:35;17.00;79.20
12426;DHT22;6277;49.824;9.562;2024-02-15T09:47:05;17.00;79.20
12426;DHT22;6277;49.824;9.562;2024-02-15T09:49:37;17.10;78.70
12426;DHT22;6277;49.824;9.562;2024-02-15T09:52:06;17.20;78.60
12426;DHT22;6277;49.824;9.562;2024-02-15T09:54:33;17.30;78.90
12426;DHT22;6277;49.824;9.562;2024-02-15T09:57:01;17.40;79.00
12426;DHT22;6277;49.824;9.562;2024-02-15T09:59:29;17.40;78.80
12426;DHT22;6277;49.824;9.562;2024-02-15T10:01:58;17.50;78.80
12426;DHT22;6277;49.824;9.562;2024-02-15T10:04:24;17.60;79.10
12426;DHT22;6277;49.824;9.562;2024-02-15T10:06:51;17.70;78.70
12426;DHT22;6277;49.824;9.562;2024-02-15T10:09:30;17.80;78.60
12426;DHT22;6277;49.824;9.562;2024-02-15T10:11:56;17.90;77.90
12426;DHT22;6277;49.824;9.562;2024-02-15T10:14:23;18.00;78.50
12426;DHT22;6277;49.824;9.562;2024-02-15T10:16:49;18.10;78.40
12426;DHT22;6277;49.824;9.562;2024-02-15T10:19:15;18.20;78.30
12426;DHT22;6277;49.824;9.562;2024-02-15T10:21:42;18.20;78.00
12426;DHT22;6277;49.824;9.562;2024-02-15T10:24:09;18.30;78.00
12426;DHT22;6277;49.824;9.562;2024-02-15T10:26:35;18.40;77.90
12426;DHT22;6277;49.824;9.562;2024-02-15T10:31:55;18.60;77.00
12426;DHT22;6277;49.824;9.562;2024-02-15T10:34:20;18.70;77.50
12426;DHT22;6277;49.824;9.562;2024-02-15T10:36:46;18.80;77.30
12426;DHT22;6277;49.824;9.562;2024-02-15T10:39:15;18.80;77.10
12426;DHT22;6277;49.824;9.562;2024-02-15T10:41:52;18.90;76.90
12426;DHT22;6277;49.824;9.562;2024-02-15T10:44:23;18.90;76.20
12426;DHT22;6277;49.824;9.562;2024-02-15T10:46:50;19.00;76.40
12426;DHT22;6277;49.824;9.562;2024-02-15T10:49:19;19.00;76.20
12426;DHT22;6277;49.824;9.562;2024-02-15T10:51:52;19.10;75.90
12426;DHT22;6277;49.824;9.562;2024-02-15T10:54:33;19.10;75.30
12426;DHT22;6277;49.824;9.562;2024-02-15T10:57:05;19.10;74.80
12426;DHT22;6277;49.824;9.562;2024-02-15T10:59:34;19.10;74.90
12426;DHT22;6277;49.824;9.562;2024-02-15T11:02:30;19.20;75.20
12426;DHT22;6277;49.824;9.562;2024-02-15T11:05:02;19.20;74.20
12426;DHT22;6277;49.824;9.562;2024-02-15T11:07:30;19.20;74.30
12426;DHT22;6277;49.824;9.562;2024-02-15T11:09:57;19.20;75.50
12426;DHT22;6277;49.824;9.562;2024-02-15T11:12:24;19.30;74.70
12426;DHT22;6277;49.824;9.562;2024-02-15T11:14:51;19.30;74.50
12426;DHT22;6277;49.824;9.562;2024-02-15T11:20:08;19.30;73.00
12426;DHT22;6277;49.824;9.562;2024-02-15T11:22:35;19.30;73.80
12426;DHT22;6277;49.824;9.562;2024-02-15T11:25:03;19.20;74.00
12426;DHT22;6277;49.824;9.562;2024-02-15T11:27:35;19.20;73.60
12426;DHT22;6277;49.824;9.562;2024-02-15T11:30:03;19.20;74.30
12426;DHT22;6277;49.824;9.562;2024-02-15T11:32:48;19.20;74.20
12426;DHT22;6277;49.824;9.562;2024-02-15T11:35:15;19.20;72.60
12426;DHT22;6277;49.824;9.562;2024-02-15T11:40:16;19.20;72.60
12426;DHT22;6277;49.824;9.562;2024-02-15T11:42:43;19.20;73.20
12426;DHT22;6277;49.824;9.562;2024-02-15T11:45:09;19.10;73.20
12426;DHT22;6277;49.824;9.562;2024-02-15T11:47:39;19.10;73.10
12426;DHT22;6277;49.824;9.562;2024-02-15T11:50:09;19.10;72.70
12426;DHT22;6277;49.824;9.562;2024-02-15T11:52:40;19.10;73.00
12426;DHT22;6277;49.824;9.562;2024-02-15T11:55:07;19.20;73.10
12426;DHT22;6277;49.824;9.562;2024-02-15T11:57:37;19.20;73.00
12426;DHT22;6277;49.824;9.562;2024-02-15T12:03:03;19.30;72.50
12426;DHT22;6277;49.824;9.562;2024-02-15T12:05:49;19.30;73.20
12426;DHT22;6277;49.824;9.562;2024-02-15T12:08:34;19.40;73.10
12426;DHT22;6277;49.824;9.562;2024-02-15T12:11:19;19.50;73.30
12426;DHT22;6277;49.824;9.562;2024-02-15T12:14:03;19.70;73.30
12426;DHT22;6277;49.824;9.562;2024-02-15T12:16:47;19.80;73.10
12426;DHT22;6277;49.824;9.562;2024-02-15T12:19:31;19.90;72.80
12426;DHT22;6277;49.824;9.562;2024-02-15T12:21:57;20.10;73.10
12426;DHT22;6277;49.824;9.562;2024-02-15T12:24:24;20.20;72.60
12426;DHT22;6277;49.824;9.562;2024-02-15T12:26:59;20.40;72.60
12426;DHT22;6277;49.824;9.562;2024-02-15T12:29:26;20.50;71.20
12426;DHT22;6277;49.824;9.562;2024-02-15T12:31:52;20.60;71.90
12426;DHT22;6277;49.824;9.562;2024-02-15T12:34:20;20.80;71.70
12426;DHT22;6277;49.824;9.562;2024-02-15T12:36:46;20.90;71.30
12426;DHT22;6277;49.824;9.562;2024-02-15T12:39:14;21.00;71.20
12426;DHT22;6277;49.824;9.562;2024-02-15T12:41:49;21.10;70.70
12426;DHT22;6277;49.824;9.562;2024-02-15T12:44:18;21.10;70.30
12426;DHT22;6277;49.824;9.562;2024-02-15T12:46:54;21.20;69.80
12426;DHT22;6277;49.824;9.562;2024-02-15T12:54:50;21.30;67.90
12426;DHT22;6277;49.824;9.562;2024-02-15T12:57:16;21.30;68.80
12426;DHT22;6277;49.824;9.562;2024-02-15T12:59:42;21.30;68.20
12426;DHT22;6277;49.824;9.562;2024-02-15T13:02:07;21.20;67.90
12426;DHT22;6277;49.824;9.562;2024-02-15T13:04:33;21.20;68.00
12426;DHT22;6277;49.824;9.562;2024-02-15T13:06:58;21.20;68.00
12426;DHT22;6277;49.824;9.562;2024-02-15T13:09:24;21.10;67.90
12426;DHT22;6277;49.824;9.562;2024-02-15T13:11:49;21.10;67.80
12426;DHT22;6277;49.824;9.562;2024-02-15T13:14:15;21.00;67.50
12426;DHT22;6277;49.824;9.562;2024-02-15T13:16:41;21.00;67.40
12426;DHT22;6277;49.824;9.562;2024-02-15T13:19:08;20.90;67.30
12426;DHT22;6277;49.824;9.562;2024-02-15T13:21:34;20.90;67.30
12426;DHT22;6277;49.824;9.562;2024-02-15T13:24:00;20.90;67.10
12426;DHT22;6277;49.824;9.562;2024-02-15T13:26:30;20.80;67.50
12426;DHT22;6277;49.824;9.562;2024-02-15T13:28:56;20.80;66.70
12426;DHT22;6277;49.824;9.562;2024-02-15T13:31:21;20.70;66.60
12426;DHT22;6277;49.824;9.562;2024-02-15T13:33:48;20.70;66.70
12426;DHT22;6277;49.824;9.562;2024-02-15T13:36:13;20.60;66.40
12426;DHT22;6277;49.824;9.562;2024-02-15T13:38:41;20.50;66.50
12426;DHT22;6277;49.824;9.562;2024-02-15T13:41:07;20.50;66.50
12426;DHT22;6277;49.824;9.562;2024-02-15T13:43:33;20.40;66.50
12426;DHT22;6277;49.824;9.562;2024-02-15T13:45:59;20.40;66.40
12426;DHT22;6277;49.824;9.562;2024-02-15T13:48:29;20.40;66.30
12426;DHT22;6277;49.824;9.562;2024-02-15T13:50:55;20.40;65.90
12426;DHT22;6277;49.824;9.562;2024-02-15T13:53:24;20.40;66.40
12426;DHT22;6277;49.824;9.562;2024-02-15T13:55:50;20.40;66.40
12426;DHT22;6277;49.824;9.562;2024-02-15T13:58:17;20.40;66.10
12426;DHT22;6277;49.824;9.562;2024-02-15T14:00:43;20.40;66.10
12426;DHT22;6277;49.824;9.562;2024-02-15T14:03:10;20.40;66.10
12426;DHT22;6277;49.824;9.562;2024-02-15T14:05:36;20.40;65.80
12426;DHT22;6277;49.824;9.562;2024-02-15T14:08:05;20.40;65.80
12426;DHT22;6277;49.824;9.562;2024-02-15T14:10:32;20.40;65.90
12426;DHT22;6277;49.824;9.562;2024-02-15T14:12:59;20.40;65.80
12426;DHT22;6277;49.824;9.562;2024-02-15T14:15:25;20.40;65.60
12426;DHT22;6277;49.824;9.562;2024-02-15T14:17:51;20.40;65.60
12426;DHT22;6277;49.824;9.562;2024-02-15T14:20:18;20.30;65.50
12426;DHT22;6277;49.824;9.562;2024-02-15T14:22:46;20.40;65.60
12426;DHT22;6277;49.824;9.562;2024-02-15T14:25:18;20.40;65.60
12426;DHT22;6277;49.824;9.562;2024-02-15T14:27:45;20.30;65.10
12426;DHT22;6277;49.824;9.562;2024-02-15T14:30:13;20.30;65.60
12426;DHT22;6277;49.824;9.562;2024-02-15T14:32:57;20.30;65.70
12426;DHT22;6277;49.824;9.562;2024-02-15T14:35:30;20.30;65.70
12426;DHT22;6277;49.824;9.562;2024-02-15T14:37:58;20.30;65.70
12426;DHT22;6277;49.824;9.562;2024-02-15T14:40:24;20.40;65.40
12426;DHT22;6277;49.824;9.562;2024-02-15T14:42:50;20.40;65.50
12426;DHT22;6277;49.824;9.562;2024-02-15T14:45:15;20.40;65.50
12426;DHT22;6277;49.824;9.562;2024-02-15T14:47:41;20.50;65.50
12426;DHT22;6277;49.824;9.562;2024-02-15T14:50:09;20.60;65.30
12426;DHT22;6277;49.824;9.562;2024-02-15T14:52:35;20.60;65.20
12426;DHT22;6277;49.824;9.562;2024-02-15T14:55:05;20.60;65.00
12426;DHT22;6277;49.824;9.562;2024-02-15T14:57:33;20.60;64.90
12426;DHT22;6277;49.824;9.562;2024-02-15T14:59:59;20.60;64.70
12426;DHT22;6277;49.824;9.562;2024-02-15T15:02:25;20.60;64.50
12426;DHT22;6277;49.824;9.562;2024-02-15T15:04:51;20.60;64.30
12426;DHT22;6277;49.824;9.562;2024-02-15T15:07:35;20.60;64.10
12426;DHT22;6277;49.824;9.562;2024-02-15T15:10:19;20.60;64.20
12426;DHT22;6277;49.824;9.562;2024-02-15T15:13:03;20.50;64.10
12426;DHT22;6277;49.824;9.562;2024-02-15T15:15:28;20.50;64.10
12426;DHT22;6277;49.824;9.562;2024-02-15T15:17:54;20.50;64.10
12426;DHT22;6277;49.824;9.562;2024-02-15T15:20:21;20.40;63.90
12426;DHT22;6277;49.824;9.562;2024-02-15T15:22:46;20.40;63.80
12426;DHT22;6277;49.824;9.562;2024-02-15T15:25:12;20.40;63.70
12426;DHT22;6277;49.824;9.562;2024-02-15T15:27:38;20.30;63.70
12426;DHT22;6277;49.824;9.562;2024-02-15T15:30:05;20.20;63.70
12426;DHT22;6277;49.824;9.562;2024-02-15T15:32:31;20.20;63.70
12426;DHT22;6277;49.824;9.562;2024-02-15T15:34:56;20.10;63.70
12426;DHT22;6277;49.824;9.562;2024-02-15T15:37:23;20.00;63.70
12426;DHT22;6277;49.824;9.562;2024-02-15T15:39:49;20.00;63.70
12426;DHT22;6277;49.824;9.562;2024-02-15T15:42:15;19.90;63.60
12426;DHT22;6277;49.824;9.562;2024-02-15T15:44:41;19.80;63.50
12426;DHT22;6277;49.824;9.562;2024-02-15T15:47:06;19.80;63.50
12426;DHT22;6277;49.824;9.562;2024-02-15T15:49:32;19.60;63.50
12426;DHT22;6277;49.824;9.562;2024-02-15T15:51:58;19.50;63.50
12426;DHT22;6277;49.824;9.562;2024-02-15T15:54:23;19.40;63.60
12426;DHT22;6277;49.824;9.562;2024-02-15T15:56:49;19.30;63.60
12426;DHT22;6277;49.824;9.562;2024-02-15T15:59:14;19.30;63.70
12426;DHT22;6277;49.824;9.562;2024-02-15T16:01:50;19.20;63.70
12426;DHT22;6277;49.824;9.562;2024-02-15T16:04:17;19.00;63.40
12426;DHT22;6277;49.824;9.562;2024-02-15T16:06:42;18.90;63.80
12426;DHT22;6277;49.824;9.562;2024-02-15T16:09:09;18.80;63.80